Arena, ND

11:38 PM CDT on July 28, 2014 (GMT -0500)
Bismarck Municipal (KBIS) Elev 1660 ft | 46.78 °N, 100.76 °W | Change Station

Current weather conditions updated 46 minutes ago

Clear
Clear
62 °F
Feels Like 62 °F
N
4
Wind Variable Wind from ESE

Tomorrow is forecast to be nearly the same temperature as today.

Today
High -- | Low -- °F
--% Chance of Precip.
Yesterday
High -- | Low -- °F
Precip. -- in
6:15 AM 9:19 PM
Waxing Crescent, 4% visible
Pressure 30.24 in
Visibility 10.0 miles
Clouds Clear
Dew Point 53 °F
Humidity 72%
Rainfall 0.00 in
Snow Depth Not available.
UV 0 out of 12
Pollen 7.00 out of 12
Air Quality Not available.
Flu Activity Not available.
METAR KBIS 290352Z 11003KT 10SM CLR 17/12 A3024 RMK AO2 SLP238 T01670117

More Conditions Fewer Conditions

Pressure 30.24 in
Visibility 10.0 miles
Clouds Clear
Dew Point 53 °F
Humidity 72%
Rainfall 0.00 in
Snow Depth Not available.
UV 0 out of 12
Pollen 7.00 out of 12
Air Quality Not available.
Flu Activity Not available.
METAR KBIS 290352Z 11003KT 10SM CLR 17/12 A3024 RMK AO2 SLP238 T01670117

More Conditions Fewer Conditions

10-Day Weather Forecast

Almanac

Astronomy

Jul. 28, 2014 Rise Set
Actual Time 6:15 AM CDT 9:19 PM CDT
Civil Twilight 5:39 AM CDT 9:55 PM CDT
Nautical Twilight 4:52 AM CDT 10:42 PM CDT
Astronomical Twilight 3:54 AM CDT 11:39 PM CDT
Moon 8:09 AM CDT (7/28) 9:49 PM CDT (7/28)
Length of Visible Light 16h 16m
Length of Day
15h 04m
Tomorrow will be 2m 29s shorter.
Waxing Crescent, 4% of the Moon is Illuminated
Jul 29
Waxing Crescent
Aug 3
First Quarter
Aug 10
Full
Aug 17
Last Quarter
Aug 25
New

Yesterday's Extremes

State Highs State Lows

Community

WunderPhotos

Upload Photos

1,738,631 photos uploaded!

Nearby

Snow Depth

Station Depth Elevation
No new snow has been reported.

Earthquake Activity

City Distance Mag. Time & Date
No recent earthquake activity has been reported nearby.
Minimum magnitude displayed is 2.5.

Coastal Water Temperatures

Place Temperature
No Stations Reporting

Nearby Weather Stations

There are no personal weather stations in this area.